Airfield :
LOGIN :

Register | Disclaimer

   EN    FR    IT 

 










Legend :    VFR   Marginal VFR   IFR   Intensive IFR   Very Intensive IFR
Visi :
Ceiling :
>= 8 km
>= 3000ft
5 to 8 km
1000 to 3000 ft
1500m to 5 km
500 to 1000 ft
800 to 1500m
200 to 500 ft
< 800m
< 200 ft
Symbols :   Thunderstorms  Fog  Heavy snow  Heavy precipitations  Wind > 20 kt
SIGMETs :     Misc.  Thunderstorms  Icing  Turbulence  Mountain Waves  Volcanic Ashes






- Airport Elevation : 681 ft
- IATA code : OSL


ENGM - Oslo Gardermoen

CURRENT METAR :
  • 231550Z VRB02KT 0400 R19R/0450N R01R/0450N R19L/0500U R01L/0325N FZFG VV002 M03/M04 Q1022 TEMPO 0200

EXPIRED METARs :
  • 231520Z VRB02KT 0250 R19R/0450N R01R/0300N R19L/0300N R01L/0300N VV001 M03/M04 Q1022 TEMPO VV002
  • 231450Z 00000KT 0250 R19R/0300N R01R/0275N R19L/0325N R01L/0225N FZFG VV002 M03/M03 Q1022
  • 231420Z 00000KT 0200 R19R/0275N R01R/0250N R19L/0275N R01L/0225N FZFG VV001 M04/M04 Q1023 TEMPO 0300
  • 231350Z VRB02KT 0250 R19R/0300N R01R/0300N R19L/0250N R01L/0400N FZFG VV002 M04/M04 Q1023 NOSIG
  • 231320Z VRB02KT 0250 R19R/0500N R01R/0300N R19L/0300N R01L/0375N FZFG VV002 M04/M04 Q1023 NOSIG

TAF TAF ENGM
Valid from the 23 at 12:00 until the 24 at 12:00 UTC


2312/2412 16002KT 0300 FZFG VV002
PROB30 2312/2408 4000 BR BKN004
BECMG 2406/2408 17012KT 9999 FEW004 SCT080



MET'MAP, your aeronautical weather chart ! - Copyright ORBIFLY December 2007 - Disclaimer

ORBIFLY MET'MAP TEAM :

Programming & Development : Alexandra Zaïnal
Concept & original design : Baudouin d'Aumeries
Assistance for programming : Marc-Olivier Méhu
Technical & hardware support : Manuel Goepfert

Contact : metmap@orbifly.com




SOURCES & CREDITS :

   NOAA